createdAt,value
2022-11-27T00:00:01.273Z,47.3
2022-11-27T00:01:02.736Z,47.4
2022-11-27T00:02:01.465Z,47.3
2022-11-27T00:03:01.321Z,47.3
2022-11-27T00:04:02.831Z,47.3
2022-11-27T00:05:01.052Z,47.4
2022-11-27T00:06:01.100Z,47.5
2022-11-27T00:07:01.182Z,47.4
2022-11-27T00:08:01.171Z,47.8
2022-11-27T00:09:01.142Z,47.8
2022-11-27T00:10:01.510Z,47.7
2022-11-27T00:11:01.176Z,47.8
2022-11-27T00:12:01.147Z,47.7
2022-11-27T00:13:01.158Z,47.8
2022-11-27T00:14:01.080Z,47.9
2022-11-27T00:15:01.066Z,48
2022-11-27T00:16:01.151Z,48
2022-11-27T00:17:01.086Z,48
2022-11-27T00:18:01.083Z,48.1
2022-11-27T00:19:01.166Z,48
2022-11-27T00:20:01.123Z,48.1
2022-11-27T00:21:01.118Z,48.1
2022-11-27T00:22:01.115Z,47.9
2022-11-27T00:23:01.113Z,47.6
2022-11-27T00:24:01.274Z,47.4
2022-11-27T00:25:01.119Z,47.6
2022-11-27T00:26:01.137Z,47.8
2022-11-27T00:27:01.157Z,47.7
2022-11-27T00:28:01.141Z,47.4
2022-11-27T00:29:01.529Z,47.7
2022-11-27T00:30:01.158Z,47.7
2022-11-27T00:31:01.126Z,47.6
2022-11-27T00:32:01.061Z,47.7
2022-11-27T00:33:01.081Z,47.5
2022-11-27T00:34:01.067Z,47.3
2022-11-27T00:35:01.219Z,47.3
2022-11-27T00:36:01.104Z,47.3
2022-11-27T00:37:01.100Z,47.4
2022-11-27T00:38:01.103Z,47.4
2022-11-27T00:39:01.076Z,47.3
2022-11-27T00:40:01.120Z,47.5
2022-11-27T00:41:01.504Z,47.5
2022-11-27T00:42:01.124Z,47.3
2022-11-27T00:43:01.138Z,47.3
2022-11-27T00:44:01.052Z,47.3
2022-11-27T00:45:01.051Z,47.3
2022-11-27T00:46:01.469Z,47.3
2022-11-27T00:47:01.449Z,47.3
2022-11-27T00:48:01.466Z,47.3
2022-11-27T00:49:01.513Z,47.3
2022-11-27T00:50:01.090Z,47.3
2022-11-27T00:51:01.909Z,47.3
2022-11-27T00:52:01.432Z,47.3
2022-11-27T00:53:01.119Z,47.3
2022-11-27T00:54:01.341Z,47.3
2022-11-27T00:55:01.108Z,47.2
2022-11-27T00:56:01.241Z,47.3
2022-11-27T00:57:01.312Z,47.2
2022-11-27T00:58:01.129Z,47.4
2022-11-27T00:59:01.073Z,47.3
2022-11-27T01:00:01.147Z,47.3
2022-11-27T01:01:01.183Z,47.3
2022-11-27T01:02:01.130Z,47.2
2022-11-27T01:03:01.099Z,47.3
2022-11-27T01:04:01.110Z,47.3
2022-11-27T01:05:01.474Z,47.2
2022-11-27T01:06:02.623Z,47.3
2022-11-27T01:07:01.482Z,47.3
2022-11-27T01:08:01.086Z,47.2
2022-11-27T01:09:01.128Z,47.2
2022-11-27T01:10:01.104Z,47.2
2022-11-27T01:11:05.086Z,47.2
2022-11-27T01:12:01.116Z,47.2
2022-11-27T01:13:01.126Z,47.2
2022-11-27T01:14:01.521Z,47.2
2022-11-27T01:15:01.142Z,47.2
2022-11-27T01:16:08.513Z,47.2
2022-11-27T01:17:01.161Z,47.2
2022-11-27T01:18:01.165Z,47.2
2022-11-27T01:19:01.077Z,47.5
2022-11-27T01:20:01.051Z,47.4
2022-11-27T01:21:10.558Z,47.6
2022-11-27T01:22:01.372Z,47.5
2022-11-27T01:23:01.474Z,47.6
2022-11-27T01:24:04.654Z,47.7
2022-11-27T01:25:01.104Z,47.9
2022-11-27T01:26:14.279Z,47.8
2022-11-27T01:27:01.779Z,47.8
2022-11-27T01:28:01.863Z,47.8
2022-11-27T01:29:01.428Z,47.9
2022-11-27T01:30:02.491Z,47.9
2022-11-27T01:31:16.363Z,48
2022-11-27T01:32:01.457Z,47.9
2022-11-27T01:33:02.251Z,48
2022-11-27T01:34:01.160Z,47.8
2022-11-27T01:35:01.059Z,47.8
2022-11-27T01:36:01.069Z,47.8
2022-11-27T01:37:01.063Z,47.9
2022-11-27T01:38:01.749Z,47.9
2022-11-27T01:39:01.131Z,48
2022-11-27T01:40:01.335Z,48
2022-11-27T01:41:01.473Z,48.1
2022-11-27T01:42:01.065Z,48
2022-11-27T01:43:01.186Z,48.1
2022-11-27T01:44:01.791Z,48.1
2022-11-27T01:45:01.260Z,48.1
2022-11-27T01:46:00.852Z,48.2
2022-11-27T01:47:01.243Z,48.1
2022-11-27T01:48:01.166Z,48
2022-11-27T01:49:01.158Z,48
2022-11-27T01:50:01.486Z,47.9
2022-11-27T01:51:03.923Z,47.8
2022-11-27T01:52:00.563Z,47.8
2022-11-27T01:53:00.107Z,47.8
2022-11-27T01:53:59.878Z,47.8
2022-11-27T01:54:59.549Z,47.8
2022-11-27T01:56:01.197Z,47.6
2022-11-27T01:57:01.088Z,47.6
2022-11-27T01:58:01.093Z,47.7
2022-11-27T01:59:00.983Z,47.6
2022-11-27T02:00:00.711Z,47.3
2022-11-27T02:01:00.504Z,47.2
2022-11-27T02:02:00.299Z,47.2
2022-11-27T02:03:00.063Z,47.3
2022-11-27T02:03:59.814Z,47.2
2022-11-27T02:05:01.538Z,47.2
2022-11-27T02:06:02.067Z,47.2
2022-11-27T02:07:01.114Z,47.2
2022-11-27T02:08:01.636Z,47.2
2022-11-27T02:09:01.916Z,47.2
2022-11-27T02:10:02.083Z,47.2
2022-11-27T02:11:01.228Z,47.2
2022-11-27T02:12:01.092Z,47.3
2022-11-27T02:13:01.135Z,47.3
2022-11-27T02:14:01.109Z,47.2
2022-11-27T02:15:01.110Z,47.2
2022-11-27T02:16:01.194Z,47.2
2022-11-27T02:17:01.376Z,47.2
2022-11-27T02:18:01.425Z,47.2
2022-11-27T02:19:02.062Z,47.2
2022-11-27T02:20:01.145Z,47.2
2022-11-27T02:21:01.142Z,47.2
2022-11-27T02:22:01.050Z,47.2
2022-11-27T02:23:01.058Z,47.2
2022-11-27T02:24:01.054Z,47.2
2022-11-27T02:25:01.066Z,47.2
2022-11-27T02:26:01.472Z,47.2
2022-11-27T02:27:01.077Z,47.2
2022-11-27T02:28:01.087Z,47.2
2022-11-27T02:29:01.088Z,47.2
2022-11-27T02:30:01.092Z,47.2
2022-11-27T02:31:01.162Z,47.2
2022-11-27T02:32:01.112Z,47.2
2022-11-27T02:33:01.248Z,47.1
2022-11-27T02:34:01.126Z,47.1
2022-11-27T02:35:01.562Z,47.1
2022-11-27T02:36:01.259Z,47.1
2022-11-27T02:37:01.143Z,47.1
2022-11-27T02:38:01.185Z,46.9
2022-11-27T02:39:01.060Z,47
2022-11-27T02:40:01.052Z,47.1
2022-11-27T02:41:01.199Z,47.1
2022-11-27T02:42:01.783Z,46.9
2022-11-27T02:43:01.430Z,46.9
2022-11-27T02:44:02.101Z,46.7
2022-11-27T02:45:02.456Z,46.5
2022-11-27T02:46:02.510Z,46.5
2022-11-27T02:47:01.102Z,46.5
2022-11-27T02:48:01.162Z,46.4
2022-11-27T02:49:01.072Z,46.2
2022-11-27T02:50:01.141Z,46.3
2022-11-27T02:51:01.142Z,46.4
2022-11-27T02:52:00.724Z,46.5
2022-11-27T02:53:00.314Z,46.3
2022-11-27T02:53:59.911Z,46.2
2022-11-27T02:54:59.500Z,45.9
2022-11-27T02:56:01.160Z,45.7
2022-11-27T02:57:03.770Z,45.8
2022-11-27T02:58:01.745Z,46
2022-11-27T02:59:01.364Z,46.1
2022-11-27T03:00:02.252Z,46.1
2022-11-27T03:01:02.031Z,46.2
2022-11-27T03:02:05.718Z,46.1
2022-11-27T03:03:02.112Z,45.8
2022-11-27T03:04:01.785Z,45.8
2022-11-27T03:05:01.497Z,45.8
2022-11-27T03:06:01.234Z,45.7
2022-11-27T03:07:07.823Z,45.8
2022-11-27T03:08:01.220Z,45.6
2022-11-27T03:09:01.128Z,45.6
2022-11-27T03:10:01.151Z,45.6
2022-11-27T03:11:01.166Z,45.6
2022-11-27T03:12:10.528Z,45.5
2022-11-27T03:13:01.300Z,45.5
2022-11-27T03:14:01.421Z,45.4
2022-11-27T03:15:01.045Z,45.2
2022-11-27T03:16:01.126Z,45
2022-11-27T03:17:13.407Z,45.2
2022-11-27T03:18:01.105Z,45
2022-11-27T03:19:01.102Z,45
2022-11-27T03:20:01.432Z,45.1
2022-11-27T03:21:01.135Z,45
2022-11-27T03:22:16.424Z,45.1
2022-11-27T03:23:02.054Z,45.1
2022-11-27T03:24:02.196Z,45
2022-11-27T03:25:01.256Z,44.7
2022-11-27T03:26:02.591Z,44.4
2022-11-27T03:27:16.975Z,44.5
2022-11-27T03:28:02.916Z,44.5
2022-11-27T03:29:01.065Z,44.5
2022-11-27T03:30:01.078Z,44.7
2022-11-27T03:31:01.103Z,44.7
2022-11-27T03:32:01.162Z,44.9
2022-11-27T03:33:01.514Z,44.6
2022-11-27T03:34:01.364Z,44.6
2022-11-27T03:35:01.043Z,44.5
2022-11-27T03:36:01.324Z,44.3
2022-11-27T03:37:01.154Z,44.3
2022-11-27T03:38:01.138Z,44.5
2022-11-27T03:39:01.123Z,44.6
2022-11-27T03:40:01.716Z,44.7
2022-11-27T03:41:01.568Z,44.4
2022-11-27T03:42:01.651Z,44.4
2022-11-27T03:43:01.294Z,44.6
2022-11-27T03:44:01.955Z,44.5
2022-11-27T03:45:02.516Z,44.4
2022-11-27T03:46:01.084Z,44.4
2022-11-27T03:47:01.126Z,44.4
2022-11-27T03:48:01.190Z,44.3
2022-11-27T03:49:01.875Z,44.2
2022-11-27T03:50:01.510Z,44.2
2022-11-27T03:51:01.129Z,44.2
2022-11-27T03:52:01.150Z,44.1
2022-11-27T03:53:01.206Z,43.9
2022-11-27T03:54:01.055Z,43.8
2022-11-27T03:55:01.237Z,43.8
2022-11-27T03:56:05.405Z,43.9
2022-11-27T03:57:01.447Z,43.8
2022-11-27T03:58:02.601Z,43.7
2022-11-27T03:59:01.192Z,43.9
2022-11-27T04:00:03.927Z,43.9
2022-11-27T04:01:02.164Z,43.7
2022-11-27T04:02:01.139Z,43.8
2022-11-27T04:03:01.059Z,43.7
2022-11-27T04:04:01.153Z,43.6
2022-11-27T04:05:01.440Z,43.6
2022-11-27T04:06:02.116Z,43.4
2022-11-27T04:07:01.211Z,43.4
2022-11-27T04:08:01.114Z,43.4
2022-11-27T04:09:00.899Z,43.5
2022-11-27T04:10:01.158Z,43.6
2022-11-27T04:11:01.156Z,43.5
2022-11-27T04:12:01.234Z,43.5
2022-11-27T04:13:01.144Z,43.5
2022-11-27T04:14:01.149Z,43.4
2022-11-27T04:15:01.828Z,43.2
2022-11-27T04:16:01.120Z,43
2022-11-27T04:17:01.065Z,43.2
2022-11-27T04:18:01.068Z,43.1
2022-11-27T04:19:01.070Z,42.7
2022-11-27T04:20:01.390Z,42.3
2022-11-27T04:21:01.477Z,42.3
2022-11-27T04:22:01.477Z,42.1
2022-11-27T04:23:02.221Z,42.1
2022-11-27T04:24:01.119Z,42.2
2022-11-27T04:25:01.122Z,42.3
2022-11-27T04:26:01.128Z,42.5
2022-11-27T04:27:01.126Z,42.8
2022-11-27T04:28:01.130Z,42.9
2022-11-27T04:29:01.525Z,43
2022-11-27T04:30:01.254Z,43
2022-11-27T04:31:01.222Z,43
2022-11-27T04:32:01.317Z,42.8
2022-11-27T04:33:01.078Z,42.6
2022-11-27T04:34:01.078Z,42.5
2022-11-27T04:35:01.116Z,42.2
2022-11-27T04:36:01.130Z,42
2022-11-27T04:37:01.104Z,42
2022-11-27T04:38:01.213Z,41.9
2022-11-27T04:39:00.718Z,41.7
2022-11-27T04:40:00.388Z,41.5
2022-11-27T04:40:59.984Z,41.3
2022-11-27T04:41:59.669Z,41.1
2022-11-27T04:43:04.317Z,41
2022-11-27T04:44:02.693Z,41
2022-11-27T04:45:01.446Z,41.1
2022-11-27T04:46:01.159Z,40.9
2022-11-27T04:47:01.221Z,40.9
2022-11-27T04:48:06.657Z,40.9
2022-11-27T04:49:01.621Z,40.4
2022-11-27T04:50:01.268Z,40.2
2022-11-27T04:51:01.084Z,40.3
2022-11-27T04:52:01.087Z,40.2
2022-11-27T04:53:09.564Z,40.1
2022-11-27T04:54:01.495Z,39.9
2022-11-27T04:55:01.063Z,40
2022-11-27T04:56:01.070Z,40.2
2022-11-27T04:57:01.363Z,40.2
2022-11-27T04:58:12.156Z,40.6
2022-11-27T04:59:08.109Z,40.9
2022-11-27T05:00:04.331Z,41.1
2022-11-27T05:01:01.248Z,41.2
2022-11-27T05:02:01.137Z,41.6
2022-11-27T05:03:14.819Z,41.9
2022-11-27T05:04:01.174Z,42.1
2022-11-27T05:05:01.255Z,42.4
2022-11-27T05:06:01.343Z,42.3
2022-11-27T05:07:01.257Z,42.5
2022-11-27T05:08:16.903Z,42.5
2022-11-27T05:09:02.015Z,42.5
2022-11-27T05:10:01.860Z,42.3
2022-11-27T05:11:01.102Z,42.3
2022-11-27T05:12:01.109Z,42.2
2022-11-27T05:13:01.233Z,42.1
2022-11-27T05:14:01.854Z,42.1
2022-11-27T05:15:04.941Z,41.7
2022-11-27T05:16:02.216Z,41.3
2022-11-27T05:17:01.865Z,41.4
2022-11-27T05:18:01.034Z,41.2
2022-11-27T05:19:00.834Z,41
2022-11-27T05:20:01.054Z,41.1
2022-11-27T05:21:01.296Z,41
2022-11-27T05:22:01.993Z,41
2022-11-27T05:23:01.352Z,41.2
2022-11-27T05:24:00.911Z,41.1
2022-11-27T05:25:00.675Z,41.2
2022-11-27T05:26:00.361Z,41
2022-11-27T05:27:00.071Z,40.7
2022-11-27T05:27:59.671Z,40.4
2022-11-27T05:29:01.399Z,40.2
2022-11-27T05:30:02.483Z,40.3
2022-11-27T05:31:01.450Z,40.3
2022-11-27T05:32:02.422Z,40.3
2022-11-27T05:33:01.132Z,40.2
2022-11-27T05:34:01.248Z,39.9
2022-11-27T05:35:01.143Z,39.8
2022-11-27T05:36:01.146Z,40
2022-11-27T05:37:00.628Z,40.2
2022-11-27T05:38:00.231Z,40.3
2022-11-27T05:38:59.839Z,40.4
2022-11-27T05:40:01.746Z,40.5
2022-11-27T05:41:01.088Z,40.6
2022-11-27T05:42:01.419Z,40.8
2022-11-27T05:43:01.477Z,40.3
2022-11-27T05:44:01.107Z,40.3
2022-11-27T05:45:00.709Z,40.3
2022-11-27T05:46:00.307Z,40.2
2022-11-27T05:47:00.044Z,40.2
2022-11-27T05:48:00.040Z,40.2
2022-11-27T05:48:59.851Z,40.2
2022-11-27T05:50:02.654Z,40.2
2022-11-27T05:51:01.651Z,40.2
2022-11-27T05:52:01.279Z,40.2
2022-11-27T05:53:02.600Z,40.2
2022-11-27T05:54:01.874Z,40
2022-11-27T05:55:01.283Z,39.6
2022-11-27T05:56:01.074Z,39.7
2022-11-27T05:57:02.313Z,39.8
2022-11-27T05:58:01.476Z,40
2022-11-27T05:59:02.619Z,40.1
2022-11-27T06:00:01.226Z,40.3
2022-11-27T06:01:04.122Z,40.6
2022-11-27T06:02:01.289Z,40.6
2022-11-27T06:03:04.099Z,40.6
2022-11-27T06:04:01.290Z,40.6
2022-11-27T06:05:02.057Z,40.8
2022-11-27T06:06:01.532Z,41
2022-11-27T06:07:01.169Z,41.2
2022-11-27T06:08:02.287Z,41.3
2022-11-27T06:09:01.140Z,41.4
2022-11-27T06:10:01.597Z,41.3
2022-11-27T06:11:01.096Z,41.2
2022-11-27T06:12:01.113Z,41.2
2022-11-27T06:13:00.878Z,40.9
2022-11-27T06:14:01.187Z,40.6
2022-11-27T06:15:01.096Z,40.5
2022-11-27T06:16:01.350Z,40.3
2022-11-27T06:17:02.139Z,40.2
2022-11-27T06:18:01.869Z,40.1
2022-11-27T06:19:01.519Z,40
2022-11-27T06:20:00.684Z,40
2022-11-27T06:21:00.448Z,40
2022-11-27T06:22:00.188Z,40
2022-11-27T06:22:59.820Z,40.1
2022-11-27T06:24:01.670Z,40.3
2022-11-27T06:25:01.738Z,40.4
2022-11-27T06:26:01.069Z,40.4
2022-11-27T06:27:01.074Z,40.2
2022-11-27T06:28:01.459Z,40.2
2022-11-27T06:29:02.589Z,40.2
2022-11-27T06:30:01.769Z,40.2
2022-11-27T06:31:01.225Z,40.2
2022-11-27T06:32:02.059Z,40
2022-11-27T06:33:02.467Z,39.7
2022-11-27T06:34:06.812Z,39.6
2022-11-27T06:35:01.143Z,39.3
2022-11-27T06:36:01.113Z,39
2022-11-27T06:37:01.127Z,38.9
2022-11-27T06:38:01.123Z,39
2022-11-27T06:39:10.008Z,39.5
2022-11-27T06:40:01.213Z,39.9
2022-11-27T06:41:01.523Z,40
2022-11-27T06:42:01.238Z,40.2
2022-11-27T06:43:02.769Z,40.4
2022-11-27T06:44:13.944Z,40.3
2022-11-27T06:45:01.922Z,39.9
2022-11-27T06:46:01.217Z,39.9
2022-11-27T06:47:01.094Z,40.2
2022-11-27T06:48:01.089Z,40.3
2022-11-27T06:49:16.089Z,40.6
2022-11-27T06:50:01.427Z,41.1
2022-11-27T06:51:01.111Z,41.3
2022-11-27T06:52:01.154Z,41.6
2022-11-27T06:53:00.802Z,41.9
2022-11-27T06:54:00.406Z,41.7
2022-11-27T06:55:05.186Z,41.7
2022-11-27T06:56:01.385Z,41.8
2022-11-27T06:57:01.390Z,41.8
2022-11-27T06:58:01.405Z,41.5
2022-11-27T06:59:01.435Z,41.4
2022-11-27T07:00:01.488Z,41.7
2022-11-27T07:01:01.163Z,41.9
2022-11-27T07:02:01.192Z,41.7
2022-11-27T07:03:01.083Z,41.5
2022-11-27T07:04:01.107Z,41.4
2022-11-27T07:05:01.067Z,41.4
2022-11-27T07:06:01.080Z,41.2
2022-11-27T07:07:01.318Z,41.2
2022-11-27T07:08:01.842Z,41.5
2022-11-27T07:09:02.481Z,41.6
2022-11-27T07:10:01.333Z,41.8
2022-11-27T07:11:02.607Z,41.9
2022-11-27T07:12:01.687Z,42.2
2022-11-27T07:13:01.351Z,42.2
2022-11-27T07:14:01.660Z,42.4
2022-11-27T07:15:04.377Z,42.4
2022-11-27T07:16:02.731Z,42.2
2022-11-27T07:17:01.085Z,42
2022-11-27T07:18:01.102Z,41.7
2022-11-27T07:19:01.083Z,41.4
2022-11-27T07:20:01.389Z,40.7
2022-11-27T07:21:01.121Z,40.4
2022-11-27T07:22:01.105Z,40.3
2022-11-27T07:23:01.138Z,40.2
2022-11-27T07:24:01.113Z,39.9
2022-11-27T07:25:01.434Z,40
2022-11-27T07:26:01.123Z,39.9
2022-11-27T07:27:01.172Z,39.9
2022-11-27T07:28:01.575Z,39.8
2022-11-27T07:29:00.935Z,39.7
2022-11-27T07:30:01.155Z,39.4
2022-11-27T07:31:01.058Z,39.3
2022-11-27T07:32:00.873Z,39.2
2022-11-27T07:33:01.064Z,39.1
2022-11-27T07:34:01.182Z,39
2022-11-27T07:35:01.077Z,39
2022-11-27T07:36:01.087Z,39.1
2022-11-27T07:37:01.105Z,39.2
2022-11-27T07:38:01.110Z,39.3
2022-11-27T07:39:01.344Z,39.1
2022-11-27T07:40:02.898Z,39
2022-11-27T07:41:01.942Z,38.8
2022-11-27T07:42:23.127Z,38.5
2022-11-27T07:43:00.647Z,38
2022-11-27T07:44:00.326Z,37.6
2022-11-27T07:45:00.007Z,37.4
2022-11-27T07:45:59.848Z,37.4
2022-11-27T07:46:59.556Z,37.1
2022-11-27T07:48:01.467Z,36.7
2022-11-27T07:49:02.198Z,36.3
2022-11-27T07:50:01.078Z,35.7
2022-11-27T07:51:01.104Z,35.4
2022-11-27T07:52:00.601Z,35.5
2022-11-27T07:53:00.271Z,35.7
2022-11-27T07:54:00.186Z,35.6
2022-11-27T07:54:59.919Z,35.6
2022-11-27T07:55:59.559Z,35.7
2022-11-27T07:57:01.566Z,35.5
2022-11-27T07:58:02.186Z,35.6
2022-11-27T07:59:02.904Z,35.8
2022-11-27T08:00:01.191Z,35.8
2022-11-27T08:01:01.245Z,35.7
2022-11-27T08:02:01.165Z,35.7
2022-11-27T08:03:01.463Z,35.6
2022-11-27T08:04:01.097Z,35.5
2022-11-27T08:05:01.113Z,34.8
2022-11-27T08:06:01.087Z,34
2022-11-27T08:07:01.118Z,32.8
2022-11-27T08:08:01.159Z,33.2
2022-11-27T08:09:01.111Z,33.9
2022-11-27T08:10:01.395Z,34
2022-11-27T08:11:01.499Z,34
2022-11-27T08:12:01.524Z,33.9
2022-11-27T08:13:01.165Z,33.9
2022-11-27T08:14:02.044Z,34.2
2022-11-27T08:15:04.094Z,34.6
2022-11-27T08:16:01.194Z,35.3
2022-11-27T08:17:01.159Z,35.8
2022-11-27T08:18:01.224Z,35.8
2022-11-27T08:19:01.259Z,36
2022-11-27T08:20:06.784Z,36.3
2022-11-27T08:21:02.266Z,36.5
2022-11-27T08:22:01.254Z,36.9
2022-11-27T08:23:03.067Z,37.3
2022-11-27T08:24:01.067Z,37.5
2022-11-27T08:25:09.849Z,37.6
2022-11-27T08:26:02.104Z,37.6
2022-11-27T08:27:01.240Z,37.8
2022-11-27T08:28:01.249Z,37.9
2022-11-27T08:29:01.508Z,38.1
2022-11-27T08:30:12.645Z,38.3
2022-11-27T08:31:01.148Z,38.2
2022-11-27T08:32:00.973Z,38.1
2022-11-27T08:33:01.177Z,38
2022-11-27T08:34:01.171Z,37.8
2022-11-27T08:35:16.428Z,37.8
2022-11-27T08:36:01.249Z,37.7
2022-11-27T08:37:01.296Z,37.6
2022-11-27T08:38:01.303Z,37.5
2022-11-27T08:39:01.761Z,37.5
2022-11-27T08:40:16.824Z,37.5
2022-11-27T08:41:02.672Z,37.8
2022-11-27T08:42:01.317Z,37.7
2022-11-27T08:43:02.158Z,37.6
2022-11-27T08:44:04.521Z,37.5
2022-11-27T08:45:01.245Z,37.5
2022-11-27T08:46:02.086Z,37.6
2022-11-27T08:47:01.534Z,37.7
2022-11-27T08:48:02.154Z,37.8
2022-11-27T08:49:01.244Z,37.9
2022-11-27T08:50:01.140Z,37.8
2022-11-27T08:51:01.156Z,37.8
2022-11-27T08:52:00.866Z,38
2022-11-27T08:53:01.057Z,38.2
2022-11-27T08:54:01.070Z,38.3
2022-11-27T08:55:01.470Z,38.4
2022-11-27T08:56:01.073Z,38.5
2022-11-27T08:57:03.870Z,38.7
2022-11-27T08:58:01.384Z,38.8
2022-11-27T08:59:00.516Z,39.1
2022-11-27T09:00:00.071Z,39.1
2022-11-27T09:00:59.817Z,39.1
2022-11-27T09:02:01.528Z,39.5
2022-11-27T09:03:01.071Z,39.4
2022-11-27T09:04:01.263Z,39.2
2022-11-27T09:05:01.136Z,39
2022-11-27T09:06:02.094Z,39
2022-11-27T09:07:01.151Z,39
2022-11-27T09:08:01.486Z,39.1
2022-11-27T09:09:04.353Z,39.1
2022-11-27T09:10:01.765Z,39.1
2022-11-27T09:11:01.079Z,38.9
2022-11-27T09:12:01.708Z,39.1
2022-11-27T09:13:01.081Z,38.9
2022-11-27T09:14:01.357Z,39
2022-11-27T09:15:01.524Z,38.8
2022-11-27T09:16:01.137Z,38.7
2022-11-27T09:17:01.232Z,38.4
2022-11-27T09:18:01.117Z,38
2022-11-27T09:19:01.123Z,38.3
2022-11-27T09:20:02.367Z,38.1
2022-11-27T09:21:01.340Z,38.3
2022-11-27T09:22:01.571Z,38.4
2022-11-27T09:23:01.646Z,39
2022-11-27T09:24:01.608Z,38.6
2022-11-27T09:25:01.249Z,38.7
2022-11-27T09:26:01.288Z,38.8
2022-11-27T09:27:01.089Z,38.9
2022-11-27T09:28:01.304Z,39
2022-11-27T09:29:01.119Z,38.8
2022-11-27T09:30:01.117Z,38.4
2022-11-27T09:31:01.200Z,38.4
2022-11-27T09:32:01.609Z,37.9
2022-11-27T09:33:01.323Z,37.7
2022-11-27T09:34:01.122Z,38.1
2022-11-27T09:35:01.215Z,38.1
2022-11-27T09:36:01.040Z,38.2
2022-11-27T09:37:01.147Z,38.2
2022-11-27T09:38:01.141Z,37.9
2022-11-27T09:39:01.291Z,37.8
2022-11-27T09:40:01.157Z,37.7
2022-11-27T09:41:03.293Z,37.3
2022-11-27T09:42:01.083Z,37.1
2022-11-27T09:43:01.315Z,36.7
2022-11-27T09:44:01.142Z,36.3
2022-11-27T09:45:01.796Z,36.1
2022-11-27T09:46:01.601Z,36.5
2022-11-27T09:47:00.491Z,37
2022-11-27T09:48:00.169Z,36.6
2022-11-27T09:48:59.913Z,36.5
2022-11-27T09:50:00.037Z,36.3
2022-11-27T09:50:59.779Z,36.3
2022-11-27T09:52:01.444Z,36.1
2022-11-27T09:53:01.571Z,36.2
2022-11-27T09:54:01.153Z,36
2022-11-27T09:55:01.237Z,35.8
2022-11-27T09:56:01.287Z,35.7
2022-11-27T09:57:01.579Z,35.4
2022-11-27T09:58:03.001Z,35.7
2022-11-27T09:59:02.194Z,35.6
2022-11-27T10:00:01.208Z,35.4
2022-11-27T10:01:04.107Z,35.5
2022-11-27T10:02:01.392Z,35.1
2022-11-27T10:03:01.281Z,35.1
2022-11-27T10:04:02.119Z,35.2
2022-11-27T10:05:20.232Z,35.7
2022-11-27T10:06:08.213Z,35.4
2022-11-27T10:07:02.072Z,35.2
2022-11-27T10:08:06.333Z,35.3
2022-11-27T10:09:01.129Z,35.7
2022-11-27T10:10:01.153Z,35.2
2022-11-27T10:11:11.589Z,35.2
2022-11-27T10:12:01.501Z,34.8
2022-11-27T10:13:01.102Z,34.7
2022-11-27T10:14:01.085Z,34.3
2022-11-27T10:15:01.069Z,34.7
2022-11-27T10:16:14.438Z,34.7
2022-11-27T10:17:01.130Z,34.6
2022-11-27T10:18:01.084Z,35
2022-11-27T10:19:01.402Z,34.9
2022-11-27T10:20:01.440Z,34.9
2022-11-27T10:21:16.746Z,34.9
2022-11-27T10:22:02.251Z,34.7
2022-11-27T10:23:01.981Z,34.9
2022-11-27T10:24:01.353Z,34.5
2022-11-27T10:25:01.253Z,34.3
2022-11-27T10:26:01.945Z,33.8
2022-11-27T10:27:01.159Z,33.7
2022-11-27T10:28:01.431Z,34
2022-11-27T10:29:01.606Z,33.3
2022-11-27T10:30:01.180Z,33
2022-11-27T10:31:01.171Z,32.8
2022-11-27T10:32:01.010Z,32.5
2022-11-27T10:33:00.832Z,29.5
2022-11-27T10:34:00.626Z,28.4
2022-11-27T10:35:00.263Z,27.9
2022-11-27T10:35:59.957Z,27.7
2022-11-27T10:36:59.762Z,27.6
2022-11-27T10:38:06.500Z,27.3
2022-11-27T10:39:02.321Z,27.2
2022-11-27T10:40:01.145Z,27.7
2022-11-27T10:41:01.127Z,27.8
2022-11-27T10:42:01.317Z,28.2
2022-11-27T10:43:01.133Z,27.4
2022-11-27T10:44:01.946Z,27.2
2022-11-27T10:45:01.735Z,27.7
2022-11-27T10:46:01.222Z,27.7
2022-11-27T10:47:01.090Z,27.6
2022-11-27T10:48:01.659Z,27.6
2022-11-27T10:49:01.275Z,27.4
2022-11-27T10:50:01.118Z,27.6
2022-11-27T10:51:01.098Z,27.5
2022-11-27T10:52:01.801Z,27.5
2022-11-27T10:53:01.917Z,27.9
2022-11-27T10:54:01.248Z,28.6
2022-11-27T10:55:01.135Z,27.3
2022-11-27T10:56:00.826Z,26.8
2022-11-27T10:57:00.509Z,27.3
2022-11-27T10:58:00.199Z,27.6
2022-11-27T10:58:59.905Z,27.3
2022-11-27T10:59:59.507Z,27
2022-11-27T11:01:01.793Z,26.7
2022-11-27T11:02:02.165Z,27.1
2022-11-27T11:03:01.067Z,25.6
2022-11-27T11:04:14.003Z,24.1
2022-11-27T11:05:30.831Z,25
2022-11-27T11:06:20.116Z,25.6
2022-11-27T11:07:01.510Z,25.7
2022-11-27T11:08:01.290Z,24.1
2022-11-27T11:09:01.601Z,23.4
2022-11-27T11:10:01.306Z,22.8
2022-11-27T11:11:01.222Z,22.2
2022-11-27T11:12:01.253Z,21.1
2022-11-27T11:13:01.721Z,21.1
2022-11-27T11:14:01.358Z,21.4
2022-11-27T11:15:01.162Z,23.6
2022-11-27T11:16:01.147Z,21.9
2022-11-27T11:17:01.109Z,22.8
2022-11-27T11:18:01.873Z,23
2022-11-27T11:19:01.444Z,22.9
2022-11-27T11:20:00.623Z,22.8
2022-11-27T11:21:00.429Z,23.6
2022-11-27T11:22:00.225Z,22.9
2022-11-27T11:23:00.046Z,21.8
2022-11-27T11:24:00.062Z,20.1
2022-11-27T11:24:59.771Z,19.1
2022-11-27T11:26:02.037Z,18.4
2022-11-27T11:27:01.439Z,18.8
2022-11-27T11:28:01.130Z,18.2
2022-11-27T11:29:01.132Z,17.8
2022-11-27T11:30:01.155Z,17.3
2022-11-27T11:31:01.511Z,17.3
2022-11-27T11:32:01.191Z,16.6
2022-11-27T11:33:01.157Z,16.6
2022-11-27T11:34:01.177Z,16.7
2022-11-27T11:35:01.796Z,17.8
2022-11-27T11:36:01.410Z,16.8
2022-11-27T11:37:01.669Z,16
2022-11-27T11:38:01.130Z,15.8
2022-11-27T11:39:01.042Z,16
2022-11-27T11:40:01.080Z,15.8
2022-11-27T11:41:01.109Z,16.9
2022-11-27T11:42:04.979Z,18.1
2022-11-27T11:43:01.119Z,17.1
2022-11-27T11:44:01.123Z,16.2
2022-11-27T11:45:02.507Z,16.2
2022-11-27T11:46:01.603Z,15.9
2022-11-27T11:47:06.994Z,15.4
2022-11-27T11:48:02.166Z,15.4
2022-11-27T11:49:01.163Z,15.7
2022-11-27T11:50:00.426Z,15.9
2022-11-27T11:50:59.990Z,17.5
2022-11-27T11:52:08.736Z,16.9
2022-11-27T11:53:01.160Z,16.1
2022-11-27T11:54:01.270Z,14.9
2022-11-27T11:55:01.308Z,14.2
2022-11-27T11:56:01.266Z,13.7
2022-11-27T11:57:12.229Z,13.6
2022-11-27T11:58:01.136Z,13.9
2022-11-27T11:59:01.114Z,14
2022-11-27T12:00:01.225Z,14.3
2022-11-27T12:02:14.203Z,14.9
2022-11-27T12:03:01.134Z,15.1
2022-11-27T12:04:01.123Z,15.2
2022-11-27T12:05:01.213Z,15.8
2022-11-27T12:06:03.886Z,16.2
2022-11-27T12:07:15.791Z,15.8
2022-11-27T12:08:01.555Z,15.8
2022-11-27T12:09:01.446Z,14.7
2022-11-27T12:10:01.814Z,14.3
2022-11-27T12:11:02.235Z,14.2
2022-11-27T12:12:01.304Z,14.6
2022-11-27T12:13:01.521Z,14.7
2022-11-27T12:14:01.952Z,15.1
2022-11-27T12:15:01.489Z,16.5
2022-11-27T12:16:01.146Z,16.2
2022-11-27T12:17:01.197Z,16.6
2022-11-27T12:18:01.682Z,16.2
2022-11-27T12:19:01.083Z,16.8
2022-11-27T12:20:01.186Z,16.9
2022-11-27T12:21:01.363Z,16
2022-11-27T12:22:02.347Z,15.3
2022-11-27T12:23:04.775Z,15
2022-11-27T12:24:01.431Z,14.9
2022-11-27T12:25:01.752Z,14.8
2022-11-27T12:26:02.142Z,14.8
2022-11-27T12:27:01.434Z,15.1
2022-11-27T12:28:01.157Z,15.1
2022-11-27T12:29:01.323Z,15.5
2022-11-27T12:30:01.909Z,15.7
2022-11-27T12:31:01.118Z,15.6
2022-11-27T12:32:01.334Z,15.6
2022-11-27T12:33:00.919Z,15.7
2022-11-27T12:33:59.589Z,16
2022-11-27T12:35:01.349Z,15.9
2022-11-27T12:36:02.759Z,15.9
2022-11-27T12:37:01.142Z,16.1
2022-11-27T12:38:01.264Z,15.9
2022-11-27T12:39:01.054Z,16
2022-11-27T12:40:01.065Z,16.1
2022-11-27T12:41:01.096Z,16.1
2022-11-27T12:42:01.160Z,16.3
2022-11-27T12:43:01.094Z,16.7
2022-11-27T12:44:01.084Z,16.6
2022-11-27T12:45:01.147Z,16.6
2022-11-27T12:46:02.576Z,16.4
2022-11-27T12:47:01.820Z,16.6
2022-11-27T12:48:01.313Z,16.6
2022-11-27T12:49:01.129Z,17
2022-11-27T12:50:01.122Z,16.7
2022-11-27T12:51:01.130Z,16.7
2022-11-27T12:52:01.297Z,16.7
2022-11-27T12:53:00.843Z,16.7
2022-11-27T12:54:00.632Z,17.1
2022-11-27T12:55:00.240Z,17
2022-11-27T12:55:59.943Z,16.9
2022-11-27T12:56:59.613Z,17.6
2022-11-27T12:58:01.271Z,18
2022-11-27T12:59:01.993Z,17.3
2022-11-27T13:00:01.447Z,17.1
2022-11-27T13:01:01.743Z,16.9
2022-11-27T13:02:02.003Z,16.8
2022-11-27T13:03:01.546Z,16.6
2022-11-27T13:04:01.111Z,16.7
2022-11-27T13:05:01.162Z,16.8
2022-11-27T13:06:01.227Z,16.4
2022-11-27T13:07:01.121Z,16
2022-11-27T13:08:01.171Z,15.7
2022-11-27T13:09:01.180Z,15.8
2022-11-27T13:10:01.142Z,16.1
2022-11-27T13:11:01.050Z,16.1
2022-11-27T13:12:01.058Z,15.5
2022-11-27T13:13:01.003Z,15.2
2022-11-27T13:14:02.201Z,14.8
2022-11-27T13:15:01.560Z,14.7
2022-11-27T13:16:02.312Z,14.6
2022-11-27T13:17:01.527Z,14.8
2022-11-27T13:18:01.175Z,14.8
2022-11-27T13:19:00.900Z,14.8
2022-11-27T13:20:00.599Z,14
2022-11-27T13:21:00.320Z,13.8
2022-11-27T13:21:59.975Z,13.9
2022-11-27T13:22:59.693Z,14
2022-11-27T13:24:01.519Z,13.9
2022-11-27T13:25:01.295Z,14.1